createdAt,value
2023-04-21T00:09:00.223Z,8.37
2023-04-21T00:19:06.910Z,9.73
2023-04-21T00:29:10.109Z,9.67
2023-04-21T00:39:15.247Z,9.40
2023-04-21T00:49:18.785Z,8.63
2023-04-21T00:59:23.661Z,9.00
2023-04-21T01:09:28.007Z,9.33
2023-04-21T01:19:36.280Z,8.60
2023-04-21T01:29:42.527Z,7.97
2023-04-21T01:39:48.774Z,7.67
2023-04-21T01:49:53.483Z,7.93
2023-04-21T01:59:57.528Z,8.63
2023-04-21T02:10:02.390Z,8.57
2023-04-21T02:20:06.954Z,8.90
2023-04-21T02:30:12.207Z,8.00
2023-04-21T02:40:15.860Z,8.93
2023-04-21T02:50:20.608Z,8.10
2023-04-21T03:00:24.023Z,8.10
2023-04-21T03:10:28.666Z,7.90
2023-04-21T03:20:32.160Z,7.20
2023-04-21T03:30:36.794Z,7.30
2023-04-21T03:40:40.375Z,8.73
2023-04-21T03:50:45.022Z,8.77
2023-04-21T04:00:48.178Z,9.37
2023-04-21T04:10:52.713Z,8.77
2023-04-21T04:20:56.093Z,9.67
2023-04-21T04:31:01.206Z,9.40
2023-04-21T04:41:06.300Z,9.57
2023-04-21T04:51:10.816Z,9.17
2023-04-21T05:01:14.841Z,9.73
2023-04-21T05:11:19.489Z,10.30
2023-04-21T05:21:28.295Z,10.80
2023-04-21T05:31:33.104Z,11.67
2023-04-21T05:41:36.294Z,10.73
2023-04-21T05:51:40.887Z,10.93
2023-04-21T06:01:44.379Z,9.53
2023-04-21T06:11:50.585Z,9.27
2023-04-21T06:21:53.935Z,8.93
2023-04-21T06:31:58.667Z,8.90
2023-04-21T06:42:02.415Z,9.77
2023-04-21T06:52:06.983Z,10.00
2023-04-21T07:02:10.334Z,9.20
2023-04-21T07:12:15.041Z,8.03
2023-04-21T07:22:18.162Z,6.90
2023-04-21T07:32:22.834Z,6.70
2023-04-21T07:42:26.839Z,5.57
2023-04-21T07:52:31.341Z,6.03
2023-04-21T08:02:34.623Z,5.97
2023-04-21T08:12:39.234Z,5.13
2023-04-21T08:22:42.453Z,5.37
2023-04-21T08:32:47.252Z,5.27
2023-04-21T08:42:50.421Z,5.20
2023-04-21T08:52:55.436Z,5.30
2023-04-21T09:03:01.814Z,5.13
2023-04-21T09:13:09.643Z,5.13
2023-04-21T09:23:13.305Z,5.30
2023-04-21T09:33:27.826Z,5.87
2023-04-21T09:43:36.440Z,5.37
2023-04-21T09:53:42.123Z,5.87
2023-04-21T10:03:46.845Z,5.37
2023-04-21T10:13:52.025Z,6.17
2023-04-21T10:23:55.336Z,5.40
2023-04-21T10:34:20.051Z,6.00
2023-04-21T10:44:24.381Z,5.90
2023-04-21T10:54:31.234Z,6.63
2023-04-21T11:04:35.027Z,6.67
2023-04-21T11:14:41.755Z,7.20
2023-04-21T11:24:48.235Z,6.53
2023-04-21T11:34:52.842Z,7.20
2023-04-21T11:44:57.215Z,7.00
2023-04-21T11:55:02.640Z,6.97
2023-04-21T12:05:07.615Z,8.00
2023-04-21T12:15:14.131Z,8.53
2023-04-21T12:25:17.495Z,8.07
2023-04-21T12:35:22.093Z,8.03
2023-04-21T12:45:25.396Z,7.43
2023-04-21T12:55:29.989Z,7.60
2023-04-21T13:05:33.238Z,7.80
2023-04-21T13:15:38.113Z,7.43
2023-04-21T13:25:41.433Z,7.25
2023-04-21T13:35:46.027Z,7.38
2023-04-21T13:45:51.968Z,8.07
2023-04-21T13:55:57.532Z,7.30
2023-04-21T14:06:00.757Z,6.68
2023-04-21T14:16:05.526Z,5.75
2023-04-21T14:26:08.787Z,5.88
2023-04-21T14:36:13.362Z,6.50
2023-04-21T14:46:16.676Z,6.07
2023-04-21T14:56:21.308Z,6.93
2023-04-21T15:06:24.551Z,6.45
2023-04-21T15:16:29.176Z,6.63
2023-04-21T15:26:32.270Z,6.82
2023-04-21T15:36:36.804Z,7.40
2023-04-21T15:46:40.164Z,6.47
2023-04-21T15:56:44.750Z,7.50
2023-04-21T16:06:47.979Z,7.55
2023-04-21T16:16:52.568Z,7.35
2023-04-21T16:26:57.644Z,7.32
2023-04-21T16:37:02.260Z,7.28
2023-04-21T16:47:05.618Z,7.50
2023-04-21T16:57:10.297Z,7.85
2023-04-21T17:07:13.620Z,8.00
2023-04-21T17:17:18.548Z,8.38
2023-04-21T17:27:22.130Z,8.43
2023-04-21T17:37:26.708Z,8.50
2023-04-21T17:47:30.192Z,8.83
2023-04-21T17:57:35.050Z,8.70
2023-04-21T18:07:38.261Z,9.77
2023-04-21T18:17:42.895Z,10.57
2023-04-21T18:27:46.204Z,9.83
2023-04-21T18:37:50.719Z,10.57
2023-04-21T18:47:53.898Z,10.73
2023-04-21T18:57:58.488Z,11.47
2023-04-21T19:08:01.810Z,11.60
2023-04-21T19:18:06.497Z,11.47
2023-04-21T19:28:09.915Z,11.33
2023-04-21T19:38:14.562Z,18.93
2023-04-21T19:48:17.755Z,13.63
2023-04-21T19:58:32.589Z,11.83
2023-04-21T20:08:42.410Z,13.60
2023-04-21T20:18:46.914Z,13.20
2023-04-21T20:28:50.151Z,13.33
2023-04-21T20:38:57.084Z,13.70
2023-04-21T20:49:00.241Z,13.63
2023-04-21T20:59:04.791Z,13.90
2023-04-21T21:09:08.979Z,15.37
2023-04-21T21:19:13.595Z,16.10
2023-04-21T21:29:16.754Z,14.93
2023-04-21T21:39:21.292Z,16.03
2023-04-21T21:49:24.498Z,15.70
2023-04-21T21:59:31.863Z,14.90
2023-04-21T22:09:37.337Z,13.40
2023-04-21T22:19:43.248Z,12.97
2023-04-21T22:29:46.453Z,12.40
2023-04-21T22:39:51.080Z,11.50
2023-04-21T22:49:55.824Z,11.23
2023-04-21T23:00:00.333Z,12.73
2023-04-21T23:10:03.749Z,10.67
2023-04-21T23:20:10.217Z,11.93
2023-04-21T23:30:14.117Z,11.40
2023-04-21T23:40:18.884Z,11.53
2023-04-21T23:50:22.154Z,11.83
